Time;durP1;ratioP1;P1;durP2;ratioP2;P2;SDS_P1;SDS_P2;PMS_P1;PMS_P2;Temp;Humidity;BMP_temperature;BMP_pressure;BME280_temperature;BME280_humidity;BME280_pressure;Samples;Min_cycle;Max_cycle;Signal;HPM_P1;HPM_P2
2023/09/07 00:00:14;;;;;;;1.35;1.20;;;;;;;25.46;40.93;98964.94;2089023;28;20093;-51
2023/09/07 00:01:15;;;;;;;1.77;1.58;;;;;;;25.45;41.03;98966.03;2087223;28;20043;-57
2023/09/07 00:02:17;;;;;;;1.40;1.27;;;;;;;25.47;40.86;98966.63;2088671;28;20044;-52
2023/09/07 00:03:18;;;;;;;3.97;1.33;;;;;;;25.46;40.91;98965.78;2090118;28;20048;-58
2023/09/07 00:04:21;;;;;;;1.77;1.42;;;;;;;25.46;40.61;98968.50;2091173;28;20048;-52
2023/09/07 00:05:21;;;;;;;4.03;1.50;;;;;;;25.48;41.02;98962.84;2092857;28;20040;-54
2023/09/07 00:06:24;;;;;;;1.35;1.02;;;;;;;25.47;40.72;98962.00;2086234;28;20647;-55
2023/09/07 00:07:24;;;;;;;2.45;1.30;;;;;;;25.46;41.03;98963.06;2092011;28;20040;-48
2023/09/07 00:08:26;;;;;;;1.63;1.50;;;;;;;25.48;40.98;98963.66;2093507;27;20711;-50
2023/09/07 00:09:28;;;;;;;1.50;1.27;;;;;;;25.49;41.05;98961.75;2086761;28;20060;-58
2023/09/07 00:10:29;;;;;;;1.60;1.17;;;;;;;25.47;40.67;98962.00;2090655;28;20055;-54
2023/09/07 00:11:31;;;;;;;1.45;1.17;;;;;;;25.46;41.00;98968.50;2091430;28;20055;-53
2023/09/07 00:12:32;;;;;;;3.25;1.35;;;;;;;25.42;41.16;98951.03;2086384;28;20051;-51
2023/09/07 00:13:34;;;;;;;2.38;2.17;;;;;;;25.44;40.64;98951.63;2090897;28;20171;-55
2023/09/07 00:14:36;;;;;;;2.55;2.15;;;;;;;25.45;41.01;98953.28;2090872;28;20036;-54
2023/09/07 00:15:39;;;;;;;1.50;1.35;;;;;;;25.45;40.91;98953.28;2081826;28;20055;-54
2023/09/07 00:16:40;;;;;;;3.72;1.90;;;;;;;25.41;40.83;98952.94;2081860;28;21413;-49
2023/09/07 00:17:41;;;;;;;2.88;1.73;;;;;;;25.44;41.11;98953.53;2092543;28;20131;-57
2023/09/07 00:18:42;;;;;;;1.80;1.13;;;;;;;25.45;40.73;98953.28;2094427;28;20047;-54
2023/09/07 00:19:44;;;;;;;1.63;1.35;;;;;;;25.46;40.91;98948.66;2097419;28;20052;-51
2023/09/07 00:20:45;;;;;;;2.30;1.60;;;;;;;25.46;40.96;98946.75;2095889;28;20155;-54
2023/09/07 00:21:46;;;;;;;1.65;1.40;;;;;;;25.44;41.10;98948.91;2084875;28;21679;-57
2023/09/07 00:22:48;;;;;;;4.38;1.40;;;;;;;25.47;40.60;98953.88;2091258;28;21663;-55
2023/09/07 00:23:49;;;;;;;1.65;1.17;;;;;;;25.45;41.10;98950.56;2091734;28;20371;-57
2023/09/07 00:24:50;;;;;;;2.58;1.33;;;;;;;25.44;40.79;98951.63;2089827;28;20505;-54
2023/09/07 00:25:52;;;;;;;7.65;1.73;;;;;;;25.43;40.53;98947.25;2093745;28;20083;-51
2023/09/07 00:26:53;;;;;;;2.72;1.48;;;;;;;25.45;40.79;98952.44;2090331;28;20048;-55
2023/09/07 00:27:55;;;;;;;2.28;2.08;;;;;;;25.44;41.22;98951.63;2091183;28;20093;-55
2023/09/07 00:28:56;;;;;;;2.85;1.52;;;;;;;25.44;40.50;98954.34;2089511;28;20204;-55
2023/09/07 00:29:59;;;;;;;2.38;1.60;;;;;;;25.43;41.05;98949.97;2091273;28;20184;-53
2023/09/07 00:31:00;;;;;;;2.13;1.65;;;;;;;25.44;40.74;98940.78;2088893;28;20051;-54
2023/09/07 00:32:02;;;;;;;1.60;1.30;;;;;;;25.44;40.85;98946.19;2091694;28;20135;-51
2023/09/07 00:33:03;;;;;;;2.85;2.13;;;;;;;25.43;40.67;98944.53;2090556;28;20201;-57
2023/09/07 00:34:05;;;;;;;1.40;1.17;;;;;;;25.42;40.74;98941.00;2091006;28;20067;-54
2023/09/07 00:35:06;;;;;;;3.85;2.10;;;;;;;25.39;41.13;98944.19;2093179;28;20055;-55
2023/09/07 00:36:07;;;;;;;2.45;1.50;;;;;;;25.39;41.11;98943.38;2091361;28;20056;-58
2023/09/07 00:37:09;;;;;;;1.70;1.20;;;;;;;25.39;40.93;98948.81;2092711;28;20513;-55
2023/09/07 00:38:11;;;;;;;3.40;1.83;;;;;;;25.38;40.98;98937.13;2084214;28;21114;-48
2023/09/07 00:39:13;;;;;;;2.30;1.67;;;;;;;25.38;40.65;98939.84;2074936;28;20053;-49
2023/09/07 00:40:14;;;;;;;2.65;1.95;;;;;;;25.39;40.95;98937.94;2084091;28;20045;-54
2023/09/07 00:41:16;;;;;;;2.10;1.63;;;;;;;25.41;40.99;98946.69;2083888;28;20048;-49
2023/09/07 00:42:17;;;;;;;1.30;1.20;;;;;;;25.40;40.75;98942.31;2080385;28;20044;-55
2023/09/07 00:43:19;;;;;;;1.23;1.13;;;;;;;25.40;40.92;98939.59;2079743;28;20043;-51
2023/09/07 00:44:19;;;;;;;1.40;1.30;;;;;;;25.39;41.00;98937.94;2080391;28;20053;-52
2023/09/07 00:45:23;;;;;;;3.65;1.60;;;;;;;25.41;40.98;98936.66;2083638;28;20044;-50
2023/09/07 00:46:24;;;;;;;2.80;1.45;;;;;;;25.41;40.65;98939.38;2092848;28;20043;-53
2023/09/07 00:47:26;;;;;;;2.00;1.30;;;;;;;25.42;41.00;98937.47;2091019;28;20046;-54
2023/09/07 00:48:27;;;;;;;1.70;1.40;;;;;;;25.39;40.88;98935.22;2092610;28;20048;-54
2023/09/07 00:49:28;;;;;;;1.60;1.50;;;;;;;25.38;41.03;98939.00;2091805;28;20060;-48
2023/09/07 00:50:30;;;;;;;1.55;1.45;;;;;;;25.38;40.61;98933.56;2091998;28;20135;-55
2023/09/07 00:51:32;;;;;;;2.05;1.83;;;;;;;25.36;41.12;98933.81;2090110;28;20048;-52
2023/09/07 00:52:35;;;;;;;1.40;1.27;;;;;;;25.40;41.04;98934.16;2089488;28;20047;-55
2023/09/07 00:53:37;;;;;;;1.08;1.02;;;;;;;25.39;40.74;98937.94;2092854;28;20571;-49
2023/09/07 00:54:40;;;;;;;2.40;1.60;;;;;;;25.38;40.95;98937.13;2092259;28;20430;-58
2023/09/07 00:55:41;;;;;;;4.00;1.85;;;;;;;25.38;40.77;98934.41;2089195;28;20135;-55
2023/09/07 00:56:43;;;;;;;1.88;1.52;;;;;;;25.37;41.08;98931.94;2090649;28;20048;-51
2023/09/07 00:57:44;;;;;;;1.70;1.30;;;;;;;25.35;40.98;98931.34;2091212;28;20059;-56
2023/09/07 00:58:46;;;;;;;1.42;1.23;;;;;;;25.37;40.55;98934.63;2093602;28;20139;-51
2023/09/07 00:59:47;;;;;;;3.38;1.40;;;;;;;25.36;40.53;98933.00;2088244;28;20607;-57
2023/09/07 01:00:50;;;;;;;2.03;1.58;;;;;;;25.35;41.10;98934.91;2088924;28;20317;-52
2023/09/07 01:01:51;;;;;;;2.25;1.80;;;;;;;25.35;40.64;98932.19;2086150;28;20195;-52
2023/09/07 01:02:53;;;;;;;2.10;1.70;;;;;;;25.36;41.00;98933.81;2092079;28;20067;-49
2023/09/07 01:03:57;;;;;;;1.58;1.48;;;;;;;25.36;40.99;98931.09;2086388;28;20466;-53
2023/09/07 01:04:58;;;;;;;1.40;1.25;;;;;;;25.37;40.88;98934.63;2082683;28;20155;-50
2023/09/07 01:06:07;;;;;;;1.33;1.00;;;;;;;25.35;41.21;98939.47;2087435;28;20052;-50
2023/09/07 01:07:15;;;;;;;1.90;1.80;;;;;;;25.32;40.95;98937.25;2094573;28;20072;-53
2023/09/07 01:08:23;;;;;;;1.80;1.63;;;;;;;25.32;40.97;98939.97;2093742;28;20403;-54
2023/09/07 01:09:27;;;;;;;2.65;1.50;;;;;;;25.32;40.77;98934.53;2090797;28;20074;-51
2023/09/07 01:10:28;;;;;;;3.25;1.73;;;;;;;25.30;40.78;98931.25;2091568;28;20056;-52
2023/09/07 01:11:36;;;;;;;3.65;1.80;;;;;;;25.31;41.04;98936.44;2093718;28;20432;-53
2023/09/07 01:12:38;;;;;;;2.03;1.60;;;;;;;25.28;41.16;98934.19;2091988;28;20105;-53
2023/09/07 01:13:39;;;;;;;1.40;1.30;;;;;;;25.30;40.60;98934.78;2094696;28;20048;-51
2023/09/07 01:14:40;;;;;;;2.63;1.50;;;;;;;25.30;40.94;98933.97;2091980;28;20481;-51
2023/09/07 01:15:42;;;;;;;1.60;1.42;;;;;;;25.30;40.78;98937.50;2082029;28;20059;-52
2023/09/07 01:16:44;;;;;;;1.77;1.30;;;;;;;25.29;40.82;98932.31;2093443;28;20075;-50
2023/09/07 01:17:46;;;;;;;3.53;1.75;;;;;;;25.30;41.18;98932.06;2093627;28;20817;-51
2023/09/07 01:18:48;;;;;;;1.42;1.17;;;;;;;25.29;40.82;98933.13;2092561;28;22152;-50
2023/09/07 01:19:51;;;;;;;4.05;1.20;;;;;;;25.30;40.87;98928.53;2090658;28;20052;-53
2023/09/07 01:20:52;;;;;;;2.53;1.98;;;;;;;25.30;40.70;98931.25;2093826;28;20086;-51
2023/09/07 01:21:56;;;;;;;2.15;1.98;;;;;;;25.26;40.68;98928.19;2090133;28;20159;-50
2023/09/07 01:22:58;;;;;;;4.70;2.13;;;;;;;25.28;41.10;98936.09;2085285;28;21208;-52
2023/09/07 01:24:00;;;;;;;1.88;1.77;;;;;;;25.27;40.72;98929.84;2079620;28;20468;-53
2023/09/07 01:25:01;;;;;;;4.43;1.70;;;;;;;25.28;41.10;98926.06;2079827;28;20075;-52
2023/09/07 01:26:04;;;;;;;2.58;1.85;;;;;;;25.29;41.16;98926.88;2087934;28;20066;-50
2023/09/07 01:27:05;;;;;;;1.40;1.13;;;;;;;25.25;40.91;98931.16;2091277;28;20044;-50
2023/09/07 01:28:07;;;;;;;3.33;1.80;;;;;;;25.27;40.74;98929.84;2088416;28;20056;-53
2023/09/07 01:29:08;;;;;;;1.63;1.48;;;;;;;25.28;41.16;98928.78;2080581;28;20056;-52
2023/09/07 01:30:11;;;;;;;4.28;1.30;;;;;;;25.28;41.24;98925.22;2086162;28;20083;-52
2023/09/07 01:31:12;;;;;;;1.88;1.52;;;;;;;25.28;40.62;98928.78;2094837;28;20536;-49
2023/09/07 01:32:14;;;;;;;1.52;1.42;;;;;;;25.28;40.64;98925.22;2091726;28;20166;-50
2023/09/07 01:33:15;;;;;;;1.55;1.45;;;;;;;25.28;41.26;98925.22;2087435;28;20070;-52
2023/09/07 01:34:16;;;;;;;2.28;1.65;;;;;;;25.29;41.14;98921.44;2085296;28;20048;-51
2023/09/07 01:35:21;;;;;;;3.70;1.15;;;;;;;25.29;40.78;98924.16;2083683;28;20147;-50
2023/09/07 01:36:22;;;;;;;2.53;1.38;;;;;;;25.28;41.13;98923.34;2085563;28;20513;-52
2023/09/07 01:37:25;;;;;;;3.00;1.75;;;;;;;25.27;40.71;98920.84;2086227;28;20052;-52
2023/09/07 01:38:26;;;;;;;1.70;1.23;;;;;;;25.24;40.90;98924.91;2090648;28;20521;-50
2023/09/07 01:39:28;;;;;;;1.85;1.48;;;;;;;25.25;40.77;98925.72;2085359;28;20051;-53
2023/09/07 01:40:29;;;;;;;1.77;1.55;;;;;;;25.25;40.78;98923.00;2088425;28;20228;-51
2023/09/07 01:41:30;;;;;;;1.63;1.50;;;;;;;25.25;41.19;98925.72;2088669;28;20694;-52
2023/09/07 01:42:32;;;;;;;1.55;1.45;;;;;;;25.27;40.73;98921.69;2093515;28;20035;-50
2023/09/07 01:43:34;;;;;;;1.30;1.20;;;;;;;25.27;41.06;98926.28;2087353;28;20047;-52
2023/09/07 01:44:36;;;;;;;2.00;1.45;;;;;;;25.26;40.88;98920.03;2086709;28;20047;-52
2023/09/07 01:45:38;;;;;;;1.42;1.27;;;;;;;25.24;40.91;98924.91;2084747;28;20178;-52
2023/09/07 01:46:39;;;;;;;2.08;1.40;;;;;;;25.23;41.27;98925.94;2087965;28;20044;-48
2023/09/07 01:47:41;;;;;;;2.20;1.40;;;;;;;25.24;40.77;98929.47;2089590;28;20044;-48
2023/09/07 01:48:42;;;;;;;4.25;1.17;;;;;;;25.23;40.79;98933.28;2093799;28;20055;-49
2023/09/07 01:49:43;;;;;;;1.38;1.25;;;;;;;25.21;41.02;98925.34;2093235;28;20166;-51
2023/09/07 01:50:44;;;;;;;5.88;1.65;;;;;;;25.22;41.23;98921.59;2094461;28;20044;-49
2023/09/07 01:51:46;;;;;;;3.28;1.30;;;;;;;25.20;40.77;98929.13;2091040;28;20040;-51
2023/09/07 01:52:48;;;;;;;3.47;1.50;;;;;;;25.19;40.91;98928.31;2088347;28;20048;-52
2023/09/07 01:53:50;;;;;;;2.90;1.42;;;;;;;25.19;41.10;98933.75;2087164;28;20227;-51
2023/09/07 01:54:51;;;;;;;1.35;1.25;;;;;;;25.23;41.11;98936.81;2094547;28;20056;-51
2023/09/07 01:55:55;;;;;;;1.67;1.58;;;;;;;25.22;41.00;98929.72;2091093;28;20044;-52
2023/09/07 01:56:56;;;;;;;1.92;1.58;;;;;;;25.23;40.74;98927.84;2091983;28;24656;-49
2023/09/07 01:57:58;;;;;;;1.95;1.50;;;;;;;25.23;40.85;98927.84;2093361;28;20058;-50
2023/09/07 01:58:59;;;;;;;2.03;1.40;;;;;;;25.21;41.25;98924.53;2091675;28;20075;-51
2023/09/07 02:00:01;;;;;;;1.75;1.42;;;;;;;25.21;41.07;98924.53;2091444;28;20055;-49
2023/09/07 02:01:01;;;;;;;2.25;1.65;;;;;;;25.24;41.13;98924.06;2090906;28;20446;-51
2023/09/07 02:02:03;;;;;;;1.75;1.42;;;;;;;25.22;40.77;98927.03;2083862;28;20045;-49
2023/09/07 02:03:04;;;;;;;1.45;1.30;;;;;;;25.22;41.01;98926.19;2086546;28;20051;-48
2023/09/07 02:04:06;;;;;;;1.52;1.42;;;;;;;25.19;40.65;98925.59;2088901;28;20052;-52
2023/09/07 02:05:08;;;;;;;1.73;1.38;;;;;;;25.21;40.68;98919.91;2092117;28;21042;-50
2023/09/07 02:06:09;;;;;;;1.60;1.23;;;;;;;25.22;40.79;98926.19;2085307;28;20064;-51
2023/09/07 02:07:11;;;;;;;4.80;1.77;;;;;;;25.19;41.09;98922.91;2087189;28;20115;-49
2023/09/07 02:08:13;;;;;;;2.28;1.27;;;;;;;25.22;41.10;98924.31;2086960;28;20052;-51
2023/09/07 02:09:15;;;;;;;3.35;1.40;;;;;;;25.23;40.72;98928.66;2087117;28;20083;-49
2023/09/07 02:10:16;;;;;;;2.95;2.10;;;;;;;25.22;41.02;98924.31;2088723;28;20097;-50
2023/09/07 02:11:18;;;;;;;1.45;1.35;;;;;;;25.23;41.17;98927.84;2089303;28;20056;-52
2023/09/07 02:12:19;;;;;;;1.50;1.40;;;;;;;25.24;40.74;98930.31;2093241;28;20040;-51
2023/09/07 02:13:20;;;;;;;1.60;1.50;;;;;;;25.22;41.17;98923.50;2092581;28;20055;-52
2023/09/07 02:14:21;;;;;;;1.50;1.40;;;;;;;25.21;41.18;98919.09;2089531;28;20534;-49
2023/09/07 02:15:23;;;;;;;2.08;1.85;;;;;;;25.23;40.77;98925.94;2091580;28;20047;-49
2023/09/07 02:16:24;;;;;;;2.53;1.80;;;;;;;25.23;41.20;98922.41;2087179;28;20040;-49
2023/09/07 02:17:26;;;;;;;1.42;1.33;;;;;;;25.22;40.77;98926.19;2077152;28;20037;-50
2023/09/07 02:18:27;;;;;;;3.25;1.70;;;;;;;25.19;40.82;98919.34;2080328;28;20064;-54
2023/09/07 02:19:29;;;;;;;1.85;1.42;;;;;;;25.21;40.63;98924.53;2083929;28;20052;-51
2023/09/07 02:20:30;;;;;;;1.65;1.55;;;;;;;25.17;41.03;98921.47;2078866;28;20041;-53
2023/09/07 02:21:32;;;;;;;3.83;1.48;;;;;;;25.17;40.88;98919.59;2080498;28;20598;-52
2023/09/07 02:22:32;;;;;;;1.92;1.35;;;;;;;25.17;40.73;98924.19;2077223;28;20136;-49
2023/09/07 02:23:37;;;;;;;1.60;1.50;;;;;;;25.15;41.03;98918.16;2082960;28;20963;-53
2023/09/07 02:24:38;;;;;;;3.70;1.42;;;;;;;25.15;41.06;98916.28;2081281;28;20059;-53
2023/09/07 02:25:42;;;;;;;1.63;1.52;;;;;;;25.17;40.64;98916.88;2080770;28;20056;-53
2023/09/07 02:26:45;;;;;;;2.47;1.40;;;;;;;25.14;41.00;98917.34;2076140;28;20824;-53
2023/09/07 02:27:47;;;;;;;2.38;1.50;;;;;;;25.14;40.69;98919.22;2079556;28;20059;-53
2023/09/07 02:28:48;;;;;;;1.40;1.27;;;;;;;25.16;40.88;98922.56;2083706;28;20052;-53
2023/09/07 02:29:49;;;;;;;1.55;1.40;;;;;;;25.15;40.97;98921.72;2082019;28;20049;-51
2023/09/07 02:30:50;;;;;;;5.32;1.58;;;;;;;25.14;40.96;98920.06;2088082;28;20094;-49
2023/09/07 02:31:52;;;;;;;4.40;1.65;;;;;;;25.14;40.60;98928.22;2090862;28;20062;-52
2023/09/07 02:32:53;;;;;;;2.50;1.40;;;;;;;25.17;40.48;98932.34;2093340;28;20063;-51
2023/09/07 02:33:55;;;;;;;3.78;1.90;;;;;;;25.17;40.82;98930.44;2091572;28;20409;-52
2023/09/07 02:34:56;;;;;;;2.40;2.03;;;;;;;25.14;40.65;98920.06;2090898;28;20118;-51
2023/09/07 02:35:58;;;;;;;1.40;1.27;;;;;;;25.14;40.53;98925.50;2093533;28;20094;-52
2023/09/07 02:36:59;;;;;;;2.10;1.60;;;;;;;25.12;40.49;98924.06;2092264;28;20052;-53
2023/09/07 02:38:01;;;;;;;5.18;1.65;;;;;;;25.15;40.91;98926.31;2094708;28;20179;-48
2023/09/07 02:39:03;;;;;;;1.73;1.48;;;;;;;25.14;40.66;98925.50;2092496;28;20055;-52
2023/09/07 02:40:08;;;;;;;4.05;1.27;;;;;;;25.15;40.52;98931.75;2093304;28;20056;-51
2023/09/07 02:41:09;;;;;;;2.30;1.65;;;;;;;25.15;40.58;98926.31;2089528;28;20048;-49
2023/09/07 02:42:11;;;;;;;5.70;1.75;;;;;;;25.13;40.58;98923.81;2090120;28;20048;-50
2023/09/07 02:43:12;;;;;;;1.35;1.00;;;;;;;25.13;40.85;98917.53;2092727;28;20044;-51
2023/09/07 02:44:14;;;;;;;1.55;1.42;;;;;;;25.12;40.72;98924.06;2082320;28;20124;-49
2023/09/07 02:45:15;;;;;;;2.08;1.70;;;;;;;25.11;40.67;98920.53;2085813;28;20060;-52
2023/09/07 02:46:17;;;;;;;1.80;1.50;;;;;;;25.13;40.95;98929.25;2087894;28;20044;-49
2023/09/07 02:47:18;;;;;;;2.45;1.30;;;;;;;25.12;40.62;98922.16;2085423;28;20041;-51
2023/09/07 02:48:19;;;;;;;2.00;1.33;;;;;;;25.14;41.04;98917.34;2087985;28;20049;-51
2023/09/07 02:49:20;;;;;;;2.65;1.42;;;;;;;25.15;40.99;98916.28;2089028;28;20490;-51
2023/09/07 02:50:22;;;;;;;3.80;1.63;;;;;;;25.14;40.38;98911.06;2085792;28;20047;-52
2023/09/07 02:51:23;;;;;;;2.00;1.60;;;;;;;25.13;40.91;98909.41;2089636;28;20048;-50
2023/09/07 02:52:25;;;;;;;1.60;1.50;;;;;;;25.14;40.65;98917.34;2085668;28;20036;-50
2023/09/07 02:53:26;;;;;;;2.97;1.70;;;;;;;25.13;40.51;98917.53;2090490;28;20044;-50
2023/09/07 02:54:29;;;;;;;2.13;1.38;;;;;;;25.16;40.64;98922.56;2092896;28;20052;-50
2023/09/07 02:55:30;;;;;;;1.25;1.13;;;;;;;25.14;40.46;98919.22;2090955;28;20043;-50
2023/09/07 02:56:32;;;;;;;1.50;1.40;;;;;;;25.14;40.66;98911.94;2090610;28;20052;-49
2023/09/07 02:57:32;;;;;;;1.50;1.40;;;;;;;25.18;40.72;98923.97;2085630;28;20105;-53
2023/09/07 02:58:36;;;;;;;3.17;1.67;;;;;;;25.16;40.90;98915.22;2082287;28;21532;-53
2023/09/07 02:59:37;;;;;;;3.72;2.85;;;;;;;25.16;40.60;98917.13;2083177;28;20053;-52
2023/09/07 03:00:44;;;;;;;3.15;1.63;;;;;;;25.17;40.66;98918.78;2086417;28;20148;-49
2023/09/07 03:01:45;;;;;;;1.52;1.38;;;;;;;25.18;40.98;98910.41;2088888;28;20060;-50
2023/09/07 03:02:48;;;;;;;2.90;1.35;;;;;;;25.19;40.60;98919.34;2091303;28;20052;-51
2023/09/07 03:03:50;;;;;;;1.90;1.55;;;;;;;25.19;40.79;98920.19;2091443;28;20055;-52
2023/09/07 03:04:54;;;;;;;1.33;1.20;;;;;;;25.19;40.96;98927.50;2091750;28;20051;-52
2023/09/07 03:05:56;;;;;;;1.70;1.27;;;;;;;25.21;40.40;98925.34;2087079;28;20048;-50
2023/09/07 03:06:56;;;;;;;1.30;1.20;;;;;;;25.20;40.56;98912.84;2089182;28;20044;-53
2023/09/07 03:07:58;;;;;;;1.60;1.15;;;;;;;25.20;40.61;98915.56;2089320;28;24051;-52
2023/09/07 03:08:59;;;;;;;2.78;1.42;;;;;;;25.21;40.80;98927.25;2093954;28;20051;-51
2023/09/07 03:10:01;;;;;;;1.58;1.40;;;;;;;25.17;40.86;98908.72;2088623;28;20644;-50
2023/09/07 03:11:04;;;;;;;1.75;1.65;;;;;;;25.15;41.01;98916.28;2088709;28;20690;-52
2023/09/07 03:12:06;;;;;;;1.23;1.13;;;;;;;25.14;40.91;98914.63;2086290;28;22088;-52
2023/09/07 03:13:08;;;;;;;1.40;1.30;;;;;;;25.15;40.75;98913.56;2092882;28;20084;-49
2023/09/07 03:14:08;;;;;;;1.55;1.33;;;;;;;25.16;40.89;98917.13;2089939;28;20051;-53
2023/09/07 03:15:10;;;;;;;1.73;1.40;;;;;;;25.17;40.67;98914.16;2092189;28;20148;-51
2023/09/07 03:16:12;;;;;;;1.58;1.48;;;;;;;25.16;40.84;98922.56;2087746;28;20048;-49
2023/09/07 03:17:12;;;;;;;1.70;1.60;;;;;;;25.14;40.38;98917.34;2090201;28;20055;-48
2023/09/07 03:18:14;;;;;;;1.48;1.33;;;;;;;25.16;40.69;98923.38;2090385;28;20040;-49
2023/09/07 03:19:15;;;;;;;2.78;1.42;;;;;;;25.16;40.96;98915.22;2090240;28;20666;-50
2023/09/07 03:20:16;;;;;;;1.67;1.20;;;;;;;25.18;40.85;98925.84;2091499;28;20139;-50
2023/09/07 03:21:19;;;;;;;1.35;1.15;;;;;;;25.16;40.96;98917.94;2090823;28;20048;-52
2023/09/07 03:22:20;;;;;;;2.42;1.52;;;;;;;25.16;40.66;98919.84;2094940;28;20040;-52
2023/09/07 03:23:21;;;;;;;1.88;1.25;;;;;;;25.14;40.91;98920.06;2088970;28;20066;-53
2023/09/07 03:24:22;;;;;;;3.45;1.38;;;;;;;25.16;40.99;98917.13;2087234;28;20040;-54
2023/09/07 03:25:25;;;;;;;4.43;1.50;;;;;;;25.17;41.03;98922.31;2087339;28;22896;-52
2023/09/07 03:26:26;;;;;;;1.40;1.30;;;;;;;25.16;40.57;98923.38;2090611;28;20590;-53
2023/09/07 03:27:28;;;;;;;1.58;1.30;;;;;;;25.18;41.03;98917.69;2080453;27;20060;-52
2023/09/07 03:28:29;;;;;;;1.98;1.60;;;;;;;25.17;40.63;98918.78;2088604;28;20044;-53
2023/09/07 03:29:33;;;;;;;2.60;1.60;;;;;;;25.16;40.86;98920.66;2091379;28;20044;-50
2023/09/07 03:30:34;;;;;;;1.20;1.10;;;;;;;25.14;40.69;98917.34;2087916;28;20131;-50
2023/09/07 03:31:35;;;;;;;2.90;1.48;;;;;;;25.13;40.69;98915.69;2093012;28;20180;-50
2023/09/07 03:32:36;;;;;;;2.08;1.60;;;;;;;25.12;40.55;98916.72;2087901;28;20059;-49
2023/09/07 03:33:38;;;;;;;1.27;1.17;;;;;;;25.13;40.77;98918.41;2086308;28;21675;-52
2023/09/07 03:34:39;;;;;;;2.00;1.60;;;;;;;25.13;40.97;98920.25;2094107;28;20063;-52
2023/09/07 03:35:41;;;;;;;1.33;1.23;;;;;;;25.13;40.96;98915.69;2089857;28;20059;-52
2023/09/07 03:36:44;;;;;;;1.30;1.10;;;;;;;25.11;40.48;98925.94;2080472;28;20067;-50
2023/09/07 03:37:44;;;;;;;2.30;1.80;;;;;;;25.13;40.58;98914.84;2087357;28;20044;-52
2023/09/07 03:38:46;;;;;;;2.35;1.70;;;;;;;25.13;40.59;98918.41;2091289;28;20056;-51
2023/09/07 03:39:47;;;;;;;2.45;1.20;;;;;;;25.11;40.92;98915.09;2087824;27;20067;-53
2023/09/07 03:40:50;;;;;;;2.35;1.05;;;;;;;25.10;40.79;98910.75;2093497;28;20524;-52
2023/09/07 03:41:52;;;;;;;2.00;1.63;;;;;;;25.12;40.51;98914.00;2091286;28;20047;-53
2023/09/07 03:42:54;;;;;;;1.70;1.60;;;;;;;25.13;40.81;98912.13;2090281;28;20429;-49
2023/09/07 03:43:54;;;;;;;3.58;1.50;;;;;;;25.09;40.90;98911.78;2086762;28;20048;-52
2023/09/07 03:44:56;;;;;;;1.55;1.40;;;;;;;25.10;40.45;98910.75;2090511;28;20063;-53
2023/09/07 03:45:57;;;;;;;2.58;1.67;;;;;;;25.08;40.55;98910.16;2093316;28;20037;-53
2023/09/07 03:47:01;;;;;;;2.92;1.35;;;;;;;25.08;40.51;98920.19;2088855;28;20160;-52
2023/09/07 03:48:03;;;;;;;1.60;1.30;;;;;;;25.10;40.34;98913.44;2084487;28;20107;-50
2023/09/07 03:49:05;;;;;;;3.55;1.48;;;;;;;25.09;40.70;98906.34;2095004;28;20237;-52
2023/09/07 03:50:06;;;;;;;1.50;1.40;;;;;;;25.08;40.75;98899.28;2095685;28;21246;-50
2023/09/07 03:51:08;;;;;;;2.70;1.75;;;;;;;25.10;40.38;98901.75;2093658;28;20097;-52
2023/09/07 03:52:09;;;;;;;3.13;1.30;;;;;;;25.07;40.39;98903.06;2086756;28;20075;-50
2023/09/07 03:53:11;;;;;;;2.30;1.52;;;;;;;25.07;40.46;98903.06;2090247;28;20128;-51
2023/09/07 03:54:12;;;;;;;3.08;1.35;;;;;;;25.05;40.71;98902.47;2087056;28;20045;-50
2023/09/07 03:55:14;;;;;;;3.25;1.42;;;;;;;25.07;40.63;98908.47;2086498;28;20135;-51
2023/09/07 03:56:16;;;;;;;2.38;1.83;;;;;;;25.06;40.43;98903.31;2091041;28;20049;-48
2023/09/07 03:57:17;;;;;;;4.00;1.20;;;;;;;25.04;40.57;98906.25;2091682;28;20147;-49
2023/09/07 03:58:19;;;;;;;2.95;1.48;;;;;;;25.04;40.74;98903.53;2092553;28;20869;-50
2023/09/07 03:59:20;;;;;;;3.03;1.63;;;;;;;25.04;40.58;98908.97;2091297;28;20055;-51
2023/09/07 04:00:21;;;;;;;1.88;1.30;;;;;;;25.04;40.73;98913.56;2093473;28;20057;-48
2023/09/07 04:01:23;;;;;;;2.17;1.65;;;;;;;25.03;40.30;98909.22;2088772;28;20056;-49
2023/09/07 04:02:24;;;;;;;2.83;1.80;;;;;;;25.04;40.61;98910.84;2089264;28;20147;-49
2023/09/07 04:03:26;;;;;;;1.50;1.40;;;;;;;25.01;40.39;98908.63;2090846;28;20143;-49
2023/09/07 04:04:27;;;;;;;4.35;1.65;;;;;;;25.03;40.74;98901.88;2093285;28;20054;-49
2023/09/07 04:05:29;;;;;;;1.63;1.33;;;;;;;24.99;40.26;98900.72;2089465;28;20132;-50
2023/09/07 04:06:30;;;;;;;1.40;1.30;;;;;;;25.01;40.15;98906.72;2090267;28;20525;-48
2023/09/07 04:07:32;;;;;;;1.92;1.45;;;;;;;25.02;40.59;98911.09;2092644;28;20047;-51
2023/09/07 04:08:33;;;;;;;1.33;1.23;;;;;;;25.02;40.50;98915.69;2092054;28;20048;-48
2023/09/07 04:09:35;;;;;;;1.95;1.58;;;;;;;24.99;40.61;98900.72;2087798;28;20169;-51
2023/09/07 04:10:38;;;;;;;2.97;1.58;;;;;;;25.03;40.72;98914.63;2086429;28;20736;-52
2023/09/07 04:11:41;;;;;;;2.70;1.55;;;;;;;25.04;40.40;98903.53;2089825;28;20048;-49
2023/09/07 04:12:42;;;;;;;1.75;1.35;;;;;;;25.04;40.51;98908.97;2085215;28;20040;-53
2023/09/07 04:13:44;;;;;;;1.27;1.13;;;;;;;25.04;40.41;98908.97;2093867;28;20183;-53
2023/09/07 04:14:45;;;;;;;1.50;1.38;;;;;;;25.04;40.09;98898.09;2089898;28;20055;-51
2023/09/07 04:15:47;;;;;;;2.67;1.30;;;;;;;25.00;40.39;98902.38;2094433;28;20848;-50
2023/09/07 04:16:47;;;;;;;3.30;1.90;;;;;;;24.98;40.48;98899.06;2092538;28;20915;-54
2023/09/07 04:17:51;;;;;;;2.90;1.52;;;;;;;24.98;40.29;98896.34;2089104;28;20071;-50
2023/09/07 04:18:52;;;;;;;1.92;1.48;;;;;;;24.97;40.46;98902.84;2093606;28;21151;-52
2023/09/07 04:19:54;;;;;;;1.58;1.30;;;;;;;24.99;40.04;98900.72;2092178;28;20467;-52
2023/09/07 04:21:04;;;;;;;1.77;1.48;;;;;;;24.96;39.88;98904.75;2095037;28;20048;-52
2023/09/07 04:22:06;;;;;;;3.17;1.47;;;;;;;24.96;40.09;98906.59;2092374;28;20062;-49
2023/09/07 04:23:07;;;;;;;2.88;1.88;;;;;;;24.98;40.12;98912.63;2092487;28;20424;-50
2023/09/07 04:24:09;;;;;;;2.92;1.38;;;;;;;24.99;40.29;98911.59;2084650;28;20150;-51
2023/09/07 04:25:10;;;;;;;2.35;1.10;;;;;;;25.00;40.31;98909.69;2093838;28;20052;-49
2023/09/07 04:26:13;;;;;;;2.03;1.60;;;;;;;25.00;40.28;98907.81;2088223;28;20611;-52
2023/09/07 04:27:15;;;;;;;5.05;1.40;;;;;;;25.02;40.22;98913.81;2091164;27;20044;-52
2023/09/07 04:28:17;;;;;;;1.50;1.40;;;;;;;25.03;39.98;98911.94;2093257;28;20123;-51
2023/09/07 04:29:17;;;;;;;3.17;1.48;;;;;;;25.00;40.12;98913.22;2092546;28;20044;-53
2023/09/07 04:30:20;;;;;;;2.15;1.40;;;;;;;24.99;40.29;98908.88;2089586;28;20572;-52
2023/09/07 04:31:21;;;;;;;1.48;1.20;;;;;;;25.00;40.39;98910.50;2091094;28;20079;-49
2023/09/07 04:32:22;;;;;;;1.20;1.05;;;;;;;25.00;40.31;98913.22;2094886;27;20044;-49
2023/09/07 04:33:23;;;;;;;5.43;1.52;;;;;;;25.03;40.09;98909.22;2090698;28;20052;-52
2023/09/07 04:34:25;;;;;;;1.48;1.02;;;;;;;25.03;39.83;98915.47;2091601;28;20678;-50
2023/09/07 04:35:29;;;;;;;3.60;1.65;;;;;;;25.03;40.07;98912.75;2089693;28;20055;-52
2023/09/07 04:36:31;;;;;;;1.83;1.23;;;;;;;25.03;39.89;98915.47;2087452;28;20075;-51
2023/09/07 04:37:32;;;;;;;1.50;1.40;;;;;;;25.02;40.24;98912.97;2091593;28;20044;-51
2023/09/07 04:38:34;;;;;;;2.33;1.73;;;;;;;25.03;40.19;98920.06;2093002;28;20075;-48
2023/09/07 04:39:34;;;;;;;2.10;1.35;;;;;;;25.05;40.21;98915.25;2090345;28;20045;-50
2023/09/07 04:40:36;;;;;;;1.83;1.30;;;;;;;25.04;39.99;98919.00;2094355;28;20506;-49
2023/09/07 04:41:37;;;;;;;6.72;2.55;;;;;;;25.02;39.93;98921.97;2086431;28;20048;-51
2023/09/07 04:42:40;;;;;;;2.67;1.63;;;;;;;25.02;40.31;98916.53;2093129;28;20097;-52
2023/09/07 04:43:43;;;;;;;2.05;1.48;;;;;;;25.02;40.38;98912.97;2092838;28;20047;-52
2023/09/07 04:44:44;;;;;;;2.67;1.63;;;;;;;24.98;40.22;98910.75;2092006;28;20048;-48
2023/09/07 04:45:46;;;;;;;2.00;1.15;;;;;;;25.00;40.51;98918.66;2095558;28;20494;-50
2023/09/07 04:46:48;;;;;;;2.13;1.38;;;;;;;25.00;40.46;98917.84;2091834;28;20055;-51
2023/09/07 04:47:49;;;;;;;1.92;1.52;;;;;;;24.98;40.01;98915.34;2090451;28;20059;-52
2023/09/07 04:48:51;;;;;;;1.95;1.60;;;;;;;24.99;40.22;98919.72;2090877;28;20152;-50
2023/09/07 04:49:52;;;;;;;1.52;1.20;;;;;;;25.00;40.28;98920.56;2087058;28;20043;-53
2023/09/07 04:50:59;;;;;;;1.42;1.30;;;;;;;25.00;40.31;98915.94;2093150;28;20049;-52